Time;durP1;ratioP1;P1;durP2;ratioP2;P2;SDS_P1;SDS_P2;PMS_P1;PMS_P2;Temp;Humidity;BMP_temperature;BMP_pressure;BME280_temperature;BME280_humidity;BME280_pressure;Samples;Min_cycle;Max_cycle;Signal;HPM_P1;HPM_P2
2022/03/10 00:01:47;;;;;;;24.95;14.60;;;;;;;9.67;42.53;102267.31;5104140;28;20121;-60
2022/03/10 00:04:14;;;;;;;23.88;14.80;;;;;;;9.64;43.29;102268.50;5105812;28;20107;-60
2022/03/10 00:06:42;;;;;;;24.20;14.73;;;;;;;9.64;43.12;102271.19;5104294;28;20077;-59
2022/03/10 00:09:11;;;;;;;26.83;15.20;;;;;;;9.63;42.75;102266.84;5100529;28;20075;-59
2022/03/10 00:11:40;;;;;;;25.05;14.88;;;;;;;9.60;42.66;102264.50;5103700;28;20453;-59
2022/03/10 00:14:10;;;;;;;24.30;14.73;;;;;;;9.60;42.81;102266.34;5105803;28;20048;-59
2022/03/10 00:16:38;;;;;;;23.40;15.48;;;;;;;9.60;42.57;102269.03;5097060;28;20045;-61
2022/03/10 00:19:06;;;;;;;30.73;16.17;;;;;;;9.55;42.98;102271.44;5098357;28;20044;-61
2022/03/10 00:21:34;;;;;;;27.98;15.35;;;;;;;9.54;42.85;102269.78;5093449;28;20076;-60
2022/03/10 00:24:02;;;;;;;28.20;15.45;;;;;;;9.56;42.92;102281.16;5102739;28;20051;-61
2022/03/10 00:26:31;;;;;;;28.90;15.93;;;;;;;9.50;43.24;102271.13;5104912;28;20044;-60
2022/03/10 00:28:59;;;;;;;29.33;14.27;;;;;;;9.52;43.38;102275.31;5105186;28;20067;-61
2022/03/10 00:31:27;;;;;;;24.42;15.48;;;;;;;9.50;43.27;102271.97;5103172;28;20084;-59
2022/03/10 00:33:55;;;;;;;26.13;15.43;;;;;;;9.50;43.03;102274.66;5094331;28;20108;-59
2022/03/10 00:36:23;;;;;;;22.10;14.10;;;;;;;9.50;43.21;102271.97;5104780;28;20048;-60
2022/03/10 00:38:51;;;;;;;28.25;16.15;;;;;;;9.48;42.41;102270.47;5103664;28;20071;-61
2022/03/10 00:41:19;;;;;;;23.58;15.00;;;;;;;9.45;43.13;102269.00;5100832;28;20062;-60
2022/03/10 00:43:50;;;;;;;22.38;14.57;;;;;;;9.43;43.07;102277.22;5104582;28;20048;-59
2022/03/10 00:46:18;;;;;;;23.58;15.07;;;;;;;9.41;42.66;102278.41;5104282;28;20406;-61
2022/03/10 00:48:46;;;;;;;24.80;16.05;;;;;;;9.38;43.20;102279.59;5103717;28;20248;-60
2022/03/10 00:51:14;;;;;;;23.75;14.18;;;;;;;9.36;42.97;102278.97;5091265;28;20072;-60
2022/03/10 00:53:42;;;;;;;25.75;16.23;;;;;;;9.34;42.99;102286.34;5103339;28;20040;-60
2022/03/10 00:56:09;;;;;;;26.52;14.32;;;;;;;9.32;43.00;102282.16;5101351;28;20075;-60
2022/03/10 00:58:37;;;;;;;24.00;15.25;;;;;;;9.29;43.26;102302.16;5101057;28;20187;-60
2022/03/10 01:01:06;;;;;;;24.20;15.07;;;;;;;9.28;43.32;102297.78;5103924;28;20097;-60
2022/03/10 01:03:34;;;;;;;29.08;15.73;;;;;;;9.25;43.51;102297.31;5103427;28;20107;-59
2022/03/10 01:06:02;;;;;;;26.15;15.70;;;;;;;9.24;43.42;102293.78;5099241;28;20353;-59
2022/03/10 01:08:30;;;;;;;24.88;14.93;;;;;;;9.22;43.40;102292.31;5101358;28;20082;-60
2022/03/10 01:10:57;;;;;;;25.90;15.55;;;;;;;9.20;43.61;102292.47;5102175;28;20079;-60
2022/03/10 01:13:25;;;;;;;27.50;15.48;;;;;;;9.19;43.42;102280.06;5102762;28;20044;-60
2022/03/10 01:15:53;;;;;;;23.58;15.20;;;;;;;9.17;43.75;102279.41;5103333;28;20164;-60
2022/03/10 01:18:22;;;;;;;23.80;14.60;;;;;;;9.16;43.41;102287.66;5102806;28;20048;-59
2022/03/10 01:20:50;;;;;;;25.27;15.70;;;;;;;9.14;43.70;102287.81;5099638;28;20063;-59
2022/03/10 01:23:18;;;;;;;23.60;14.20;;;;;;;9.12;44.04;102289.84;5102898;28;20155;-58
2022/03/10 01:25:50;;;;;;;27.10;15.25;;;;;;;9.10;43.43;102286.50;5103981;28;20051;-59
2022/03/10 01:28:18;;;;;;;23.45;15.45;;;;;;;9.08;43.32;102291.22;5103646;28;20094;-61
2022/03/10 01:30:45;;;;;;;25.95;14.95;;;;;;;9.06;43.61;102285.19;5102711;28;20079;-61
2022/03/10 01:33:13;;;;;;;24.55;15.77;;;;;;;9.03;44.17;102281.00;5103046;28;20078;-60
2022/03/10 01:35:42;;;;;;;26.30;13.88;;;;;;;9.02;43.74;102279.34;5102715;28;20059;-60
2022/03/10 01:38:10;;;;;;;25.10;15.65;;;;;;;9.00;43.79;102280.53;5100179;28;20473;-60
2022/03/10 01:40:38;;;;;;;23.40;15.25;;;;;;;9.00;43.82;102281.38;5097969;28;20079;-59
2022/03/10 01:43:05;;;;;;;27.17;15.82;;;;;;;8.98;43.71;102277.19;5099123;28;20079;-60
2022/03/10 01:45:35;;;;;;;22.50;14.32;;;;;;;8.95;43.79;102278.38;5100618;28;20071;-59
2022/03/10 01:48:03;;;;;;;27.42;16.27;;;;;;;8.82;43.79;102260.19;5102404;28;20063;-60
2022/03/10 01:50:31;;;;;;;21.70;14.48;;;;;;;8.92;44.34;102273.38;5086159;28;20114;-61
2022/03/10 01:53:01;;;;;;;24.35;14.35;;;;;;;8.92;44.16;102273.38;5102567;28;20072;-59
2022/03/10 01:55:29;;;;;;;23.40;15.45;;;;;;;8.89;43.90;102275.56;5101778;28;20052;-59
2022/03/10 01:57:57;;;;;;;24.25;15.48;;;;;;;8.90;44.36;102272.72;5095314;28;20044;-60
2022/03/10 02:00:25;;;;;;;23.73;15.68;;;;;;;8.89;44.10;102273.72;5101680;28;20106;-59
2022/03/10 02:02:55;;;;;;;27.42;15.38;;;;;;;8.87;43.70;102273.06;5093984;28;20044;-60
2022/03/10 02:05:23;;;;;;;22.65;15.93;;;;;;;8.88;43.95;102273.88;5103728;28;20103;-60
2022/03/10 02:10:39;;;;;;;22.88;14.07;;;;;;;8.72;44.10;102250.69;5102188;28;20070;-60
2022/03/10 02:13:06;;;;;;;26.48;14.95;;;;;;;8.82;43.69;102267.38;5099438;28;20133;-60
2022/03/10 02:18:21;;;;;;;22.58;15.55;;;;;;;8.67;43.95;102240.50;5099894;28;20405;-60
2022/03/10 02:20:49;;;;;;;25.02;15.32;;;;;;;8.76;44.05;102255.53;5099624;28;20110;-60
2022/03/10 02:23:18;;;;;;;25.63;14.70;;;;;;;8.76;44.53;102262.72;5102474;28;20059;-60
2022/03/10 02:25:46;;;;;;;23.98;15.05;;;;;;;8.74;44.38;102254.03;5093485;28;20113;-61
2022/03/10 02:28:16;;;;;;;22.42;15.15;;;;;;;8.73;44.21;102252.34;5099479;28;20473;-62
2022/03/10 02:30:45;;;;;;;26.05;16.05;;;;;;;8.70;43.95;102258.91;5101995;28;20129;-60
2022/03/10 02:33:12;;;;;;;26.15;16.15;;;;;;;8.69;43.89;102259.06;5101763;28;20090;-60
2022/03/10 02:35:40;;;;;;;22.98;14.88;;;;;;;8.68;44.72;102262.75;5100594;28;20098;-60
2022/03/10 02:38:08;;;;;;;25.23;15.85;;;;;;;8.66;44.43;102262.97;5101831;28;20450;-60
2022/03/10 02:40:37;;;;;;;23.65;15.07;;;;;;;8.65;44.33;102271.19;5101880;28;20083;-61
2022/03/10 02:43:05;;;;;;;22.52;14.77;;;;;;;8.63;44.82;102267.84;5100245;28;20075;-60
2022/03/10 02:45:33;;;;;;;24.52;15.90;;;;;;;8.60;45.11;102266.34;5102534;28;20131;-59
2022/03/10 02:48:00;;;;;;;20.85;14.38;;;;;;;8.59;44.77;102269.19;5101448;28;20087;-59
2022/03/10 02:50:29;;;;;;;24.50;15.38;;;;;;;8.58;44.99;102264.84;5102767;28;20087;-60
2022/03/10 02:52:56;;;;;;;27.60;16.60;;;;;;;8.56;44.49;102266.88;5099254;28;20112;-59
2022/03/10 02:55:25;;;;;;;23.52;14.45;;;;;;;8.55;44.87;102266.03;5101630;28;20060;-60
2022/03/10 02:57:54;;;;;;;23.10;14.45;;;;;;;8.53;44.19;102265.38;5099549;28;20048;-59
2022/03/10 03:00:21;;;;;;;22.88;15.13;;;;;;;8.50;44.21;102262.19;5102027;28;20055;-61
2022/03/10 03:02:49;;;;;;;28.42;16.33;;;;;;;8.48;45.15;102265.06;5101292;28;20072;-59
2022/03/10 03:05:17;;;;;;;27.58;15.63;;;;;;;8.47;44.50;102266.91;5099477;28;20119;-59
2022/03/10 03:07:48;;;;;;;25.52;16.38;;;;;;;8.45;44.44;102268.09;5101075;28;20482;-60
2022/03/10 03:10:15;;;;;;;24.77;15.75;;;;;;;8.44;44.99;102263.72;5095674;28;20088;-60
2022/03/10 03:12:45;;;;;;;29.30;15.90;;;;;;;8.43;45.23;102265.56;5103151;28;20160;-60
2022/03/10 03:15:14;;;;;;;23.33;14.13;;;;;;;8.41;44.60;102264.91;5105965;28;20035;-60
2022/03/10 03:17:46;;;;;;;28.90;16.95;;;;;;;8.40;44.48;102262.41;5103278;28;20071;-61
2022/03/10 03:20:15;;;;;;;25.05;14.93;;;;;;;8.38;44.35;102265.25;5104994;28;20115;-59
2022/03/10 03:22:44;;;;;;;23.88;14.25;;;;;;;8.36;44.89;102263.75;5105667;28;20051;-60
2022/03/10 03:25:14;;;;;;;28.95;15.75;;;;;;;8.34;45.11;102263.94;5100876;28;20045;-60
2022/03/10 03:27:45;;;;;;;24.13;14.57;;;;;;;8.34;45.39;102268.44;5105705;28;20051;-59
2022/03/10 03:30:14;;;;;;;21.58;14.50;;;;;;;8.32;44.96;102275.78;5103997;28;20470;-59
2022/03/10 03:32:42;;;;;;;23.13;14.65;;;;;;;8.32;45.45;102273.13;5105116;28;20056;-60
2022/03/10 03:35:10;;;;;;;21.70;14.63;;;;;;;8.31;45.25;102277.63;5101899;28;20044;-60
2022/03/10 03:37:39;;;;;;;22.40;14.93;;;;;;;8.29;45.12;102276.13;5100318;28;20048;-60
2022/03/10 03:40:08;;;;;;;21.33;14.25;;;;;;;8.28;45.04;102282.50;5105335;28;20369;-60
2022/03/10 03:42:36;;;;;;;33.65;15.50;;;;;;;8.27;44.97;102275.47;5101301;28;20090;-60
2022/03/10 03:45:05;;;;;;;22.13;14.10;;;;;;;8.26;45.18;102276.47;5105709;28;20131;-59
2022/03/10 03:47:34;;;;;;;26.52;14.95;;;;;;;8.26;44.61;102282.66;5105343;28;20071;-59
2022/03/10 03:50:02;;;;;;;24.42;16.00;;;;;;;8.23;44.65;102283.00;5104225;28;20141;-58
2022/03/10 03:52:30;;;;;;;23.65;15.10;;;;;;;8.21;44.89;102279.66;5105439;28;20063;-60
2022/03/10 03:54:57;;;;;;;26.73;15.80;;;;;;;8.22;44.95;102283.19;5105501;28;20473;-60
2022/03/10 03:57:25;;;;;;;26.15;16.00;;;;;;;8.20;45.04;102283.34;5099247;28;20087;-62
2022/03/10 03:59:53;;;;;;;26.33;15.10;;;;;;;8.20;45.45;102293.22;5104113;28;20055;-59
2022/03/10 04:02:20;;;;;;;24.20;15.18;;;;;;;8.19;45.34;102294.25;5098619;28;20078;-60
2022/03/10 04:04:50;;;;;;;22.08;15.23;;;;;;;8.16;45.28;102285.53;5101025;28;20056;-60
2022/03/10 04:07:17;;;;;;;26.25;15.38;;;;;;;8.15;45.49;102288.38;5104898;28;20080;-60
2022/03/10 04:09:45;;;;;;;26.13;15.32;;;;;;;8.14;45.21;102287.56;5104972;28;20044;-60
2022/03/10 04:12:16;;;;;;;28.13;16.17;;;;;;;8.12;45.27;102302.94;5104852;28;20059;-60
2022/03/10 04:14:43;;;;;;;28.23;15.27;;;;;;;8.12;45.20;102294.91;5096746;28;20052;-59
2022/03/10 04:17:11;;;;;;;29.15;17.08;;;;;;;8.10;45.41;102301.44;5104451;28;20078;-60
2022/03/10 04:19:39;;;;;;;26.25;15.93;;;;;;;8.08;45.06;102300.78;5104798;28;20055;-60
2022/03/10 04:22:08;;;;;;;25.40;15.02;;;;;;;8.07;45.76;102310.66;5103871;28;20078;-60
2022/03/10 04:24:36;;;;;;;25.73;16.35;;;;;;;8.04;45.42;102308.31;5103843;28;20067;-60
2022/03/10 04:27:04;;;;;;;28.73;16.30;;;;;;;8.03;44.98;102300.47;5102605;28;20072;-60
2022/03/10 04:29:32;;;;;;;25.13;14.55;;;;;;;8.00;45.25;102300.78;5105405;28;20052;-59
2022/03/10 04:32:00;;;;;;;23.33;14.60;;;;;;;8.00;45.30;102303.47;5102580;28;20055;-60
2022/03/10 04:34:28;;;;;;;27.80;15.40;;;;;;;7.98;45.73;102306.31;5102760;28;20128;-59
2022/03/10 04:36:56;;;;;;;22.05;14.77;;;;;;;7.96;44.84;102300.28;5104430;28;20044;-58
2022/03/10 04:39:25;;;;;;;25.85;15.63;;;;;;;7.96;45.49;102305.66;5104371;28;20084;-60
2022/03/10 04:41:53;;;;;;;26.85;14.98;;;;;;;7.94;45.48;102302.31;5097835;28;20415;-59
2022/03/10 04:44:20;;;;;;;25.10;14.73;;;;;;;7.94;45.07;102301.47;5103684;28;20178;-60
2022/03/10 04:46:48;;;;;;;25.58;15.68;;;;;;;7.91;45.04;102296.44;5101783;28;20108;-60
2022/03/10 04:49:16;;;;;;;26.00;14.40;;;;;;;7.89;45.20;102298.47;5097455;28;20126;-60
2022/03/10 04:51:43;;;;;;;24.02;16.15;;;;;;;7.88;45.68;102297.63;5102495;28;20071;-59
2022/03/10 04:54:11;;;;;;;25.67;15.38;;;;;;;7.87;45.12;102300.47;5103340;28;20241;-60
2022/03/10 04:56:40;;;;;;;23.33;15.10;;;;;;;7.85;45.41;102300.63;5091541;28;20075;-60
2022/03/10 04:59:08;;;;;;;25.50;14.82;;;;;;;7.83;45.78;102295.47;5105010;28;20116;-60
2022/03/10 05:01:36;;;;;;;23.80;14.30;;;;;;;7.81;45.69;102296.63;5103575;28;20052;-59
2022/03/10 05:04:03;;;;;;;26.15;15.07;;;;;;;7.79;45.43;102296.78;5104123;28;20077;-59
2022/03/10 05:06:31;;;;;;;26.83;14.55;;;;;;;7.78;45.75;102291.59;5101099;28;20068;-60
2022/03/10 05:08:59;;;;;;;28.05;15.98;;;;;;;7.77;44.97;102297.97;5103723;28;20540;-59
2022/03/10 05:11:27;;;;;;;26.58;14.60;;;;;;;7.76;45.58;102298.97;5104167;28;20362;-60
2022/03/10 05:13:57;;;;;;;24.10;15.25;;;;;;;7.74;45.84;102295.63;5104059;28;20147;-60
2022/03/10 05:16:24;;;;;;;26.83;15.73;;;;;;;7.71;45.54;102304.81;5103950;28;20421;-60
2022/03/10 05:18:52;;;;;;;24.65;15.32;;;;;;;7.70;45.73;102311.19;5101668;28;20117;-60
2022/03/10 05:21:20;;;;;;;26.42;16.65;;;;;;;7.70;45.57;102305.00;5103839;28;20060;-61
2022/03/10 05:23:52;;;;;;;22.25;14.48;;;;;;;7.68;45.72;102307.84;5099859;28;20072;-59
2022/03/10 05:26:19;;;;;;;24.92;16.15;;;;;;;7.68;45.52;102310.50;5096710;28;20063;-59
2022/03/10 05:28:47;;;;;;;27.58;16.02;;;;;;;7.67;45.32;102308.84;5098839;28;20131;-59
2022/03/10 05:31:16;;;;;;;23.95;15.18;;;;;;;7.64;45.33;102305.66;5103205;28;20063;-62
2022/03/10 05:33:44;;;;;;;23.27;15.18;;;;;;;7.63;45.32;102312.00;5098919;28;20082;-59
2022/03/10 05:36:12;;;;;;;24.30;15.02;;;;;;;7.62;45.66;102308.50;5102583;28;20040;-59
2022/03/10 05:38:40;;;;;;;23.05;14.23;;;;;;;7.61;45.59;102311.34;5101041;28;20378;-59
2022/03/10 05:41:09;;;;;;;23.27;15.27;;;;;;;7.60;45.90;102313.19;5099320;28;20049;-59
2022/03/10 05:43:37;;;;;;;23.92;14.93;;;;;;;7.58;45.87;102303.66;5100278;28;20106;-58
2022/03/10 05:46:05;;;;;;;28.20;15.00;;;;;;;7.59;45.43;102311.50;5098834;28;20086;-60
2022/03/10 05:48:34;;;;;;;25.05;16.02;;;;;;;7.57;45.86;102316.19;5103044;28;20048;-59
2022/03/10 05:51:02;;;;;;;27.95;15.65;;;;;;;7.56;45.71;102309.16;5102083;28;20047;-60
2022/03/10 05:53:30;;;;;;;24.15;15.27;;;;;;;7.55;45.82;102307.50;5101722;28;20072;-60
2022/03/10 05:55:57;;;;;;;25.77;14.60;;;;;;;7.53;45.81;102304.16;5099866;28;20040;-59
2022/03/10 05:58:25;;;;;;;27.02;14.27;;;;;;;7.53;45.69;102306.81;5102695;28;20069;-58
2022/03/10 06:00:53;;;;;;;27.33;15.50;;;;;;;7.51;45.45;102298.97;5096532;28;20064;-63
2022/03/10 06:03:21;;;;;;;25.85;14.63;;;;;;;7.56;45.55;102311.84;5102462;28;20047;-60
2022/03/10 06:05:50;;;;;;;24.58;15.02;;;;;;;7.60;45.65;102307.00;5099882;28;20032;-59
2022/03/10 06:08:18;;;;;;;26.70;14.82;;;;;;;7.61;45.34;102311.34;5101418;28;20082;-58
2022/03/10 06:10:45;;;;;;;23.05;15.27;;;;;;;7.60;45.52;102313.19;5102743;28;20048;-59
2022/03/10 06:13:13;;;;;;;27.40;16.15;;;;;;;7.59;45.57;102313.34;5103073;28;20075;-60
2022/03/10 06:15:41;;;;;;;22.50;14.30;;;;;;;7.46;45.46;102295.13;5100275;28;20044;-59
2022/03/10 06:18:09;;;;;;;24.90;15.52;;;;;;;7.68;45.30;102317.69;5102084;28;20043;-60
2022/03/10 06:20:36;;;;;;;24.35;15.15;;;;;;;7.79;45.13;102318.22;5098710;28;20484;-59
2022/03/10 06:23:09;;;;;;;28.95;14.25;;;;;;;7.91;44.96;102318.72;5098902;28;20048;-58
2022/03/10 06:25:37;;;;;;;26.05;14.65;;;;;;;8.03;44.25;102312.00;5102072;28;20140;-58
2022/03/10 06:28:05;;;;;;;24.70;14.98;;;;;;;8.20;44.54;102317.34;5099553;28;20060;-58
2022/03/10 06:30:33;;;;;;;26.35;15.27;;;;;;;8.32;43.68;102316.81;5093678;28;20143;-58
2022/03/10 06:33:00;;;;;;;24.88;14.65;;;;;;;8.45;43.33;102316.31;5096589;28;20043;-59
2022/03/10 06:35:28;;;;;;;24.55;14.93;;;;;;;8.56;43.22;102307.91;5095952;28;20182;-59
2022/03/10 06:37:56;;;;;;;22.15;14.40;;;;;;;8.67;43.04;102312.00;5097770;28;20063;-59
2022/03/10 06:40:25;;;;;;;24.05;13.82;;;;;;;8.72;43.06;102318.53;5090551;28;20344;-59
2022/03/10 06:42:53;;;;;;;23.55;15.20;;;;;;;8.65;42.66;102308.69;5100332;28;20047;-61
2022/03/10 06:45:20;;;;;;;26.27;16.17;;;;;;;8.54;42.79;102317.13;5092732;28;20090;-61
2022/03/10 06:47:48;;;;;;;22.00;14.25;;;;;;;8.38;43.50;102313.47;5093720;28;20063;-61
2022/03/10 06:50:16;;;;;;;25.42;14.85;;;;;;;8.25;43.62;102321.16;5097813;28;20083;-60
2022/03/10 06:52:44;;;;;;;23.95;14.98;;;;;;;8.13;43.94;102325.22;5097959;28;20627;-60
2022/03/10 06:55:11;;;;;;;27.42;15.65;;;;;;;8.03;43.87;102322.72;5097828;28;20143;-60
2022/03/10 06:57:40;;;;;;;22.30;13.93;;;;;;;7.97;44.50;102325.22;5095132;28;20036;-62
2022/03/10 07:00:09;;;;;;;23.77;13.75;;;;;;;7.88;44.84;102323.56;5097516;28;20071;-60
2022/03/10 07:02:37;;;;;;;22.95;14.57;;;;;;;7.87;44.48;102336.09;5098524;28;20103;-60
2022/03/10 07:05:07;;;;;;;28.00;15.27;;;;;;;7.80;45.17;102340.44;5096695;28;20722;-59
2022/03/10 07:07:35;;;;;;;27.08;15.55;;;;;;;7.77;44.98;102341.63;5094279;28;20051;-60
2022/03/10 07:10:04;;;;;;;25.60;13.93;;;;;;;7.73;44.80;102334.09;5100982;28;20048;-61
2022/03/10 07:12:34;;;;;;;24.13;14.80;;;;;;;7.70;44.94;102337.09;5099314;28;20481;-61
2022/03/10 07:15:04;;;;;;;25.00;14.73;;;;;;;7.64;45.43;102335.94;5096299;28;20244;-59
2022/03/10 07:17:32;;;;;;;25.55;14.88;;;;;;;7.56;45.73;102343.09;5101374;28;20047;-58
2022/03/10 07:19:59;;;;;;;24.90;14.77;;;;;;;7.57;45.61;102342.94;5102132;28;20473;-59
2022/03/10 07:22:27;;;;;;;26.63;14.68;;;;;;;7.56;45.45;102351.13;5099891;28;20079;-59
2022/03/10 07:24:55;;;;;;;26.77;15.25;;;;;;;7.53;45.36;102346.94;5102669;28;20370;-59
2022/03/10 07:27:23;;;;;;;25.20;14.88;;;;;;;7.52;45.88;102345.28;5102664;28;20118;-59
2022/03/10 07:29:51;;;;;;;22.23;14.55;;;;;;;7.53;45.71;102348.78;5102329;28;20048;-58
2022/03/10 07:32:20;;;;;;;26.58;14.02;;;;;;;7.46;45.45;102340.59;5092679;28;20052;-59
2022/03/10 07:34:48;;;;;;;28.48;14.20;;;;;;;7.49;45.63;102341.09;5102554;28;20048;-59
2022/03/10 07:37:16;;;;;;;28.42;14.60;;;;;;;7.51;45.70;102348.94;5100444;28;20048;-60
2022/03/10 07:39:44;;;;;;;24.02;13.65;;;;;;;7.51;45.71;102344.44;5102349;28;20076;-60
2022/03/10 07:42:12;;;;;;;28.42;14.48;;;;;;;7.48;45.63;102346.59;5092176;28;20071;-59
2022/03/10 07:44:39;;;;;;;21.95;12.93;;;;;;;7.51;45.90;102348.94;5102797;28;20059;-59
2022/03/10 07:47:07;;;;;;;27.70;14.57;;;;;;;7.49;45.98;102346.44;5101843;28;20082;-59
2022/03/10 07:49:37;;;;;;;21.88;13.05;;;;;;;7.50;46.13;102349.94;5102862;28;20044;-60
2022/03/10 07:52:06;;;;;;;21.77;13.77;;;;;;;7.50;45.86;102344.59;5097150;28;20453;-59
2022/03/10 07:54:34;;;;;;;21.55;12.25;;;;;;;7.49;46.26;102341.09;5102554;28;20072;-59
2022/03/10 07:57:04;;;;;;;22.63;13.52;;;;;;;7.48;45.70;102336.75;5095986;28;20131;-59
2022/03/10 07:59:32;;;;;;;24.90;13.85;;;;;;;7.47;46.15;102337.75;5116196;28;20127;-60
2022/03/10 08:01:59;;;;;;;22.80;14.05;;;;;;;7.48;45.72;102328.72;5094520;28;20416;-60
2022/03/10 08:04:27;;;;;;;21.30;13.48;;;;;;;7.48;46.45;102334.06;5105947;28;20103;-59
2022/03/10 08:06:56;;;;;;;21.40;13.38;;;;;;;7.49;46.04;102326.88;5093916;28;20083;-59
2022/03/10 08:09:24;;;;;;;22.42;14.15;;;;;;;7.47;46.22;102332.41;5105183;28;20047;-59
2022/03/10 08:11:52;;;;;;;22.23;13.13;;;;;;;7.49;46.07;102334.91;5106143;28;20055;-59
2022/03/10 08:14:19;;;;;;;22.60;13.48;;;;;;;7.51;46.05;102339.09;5102338;28;20044;-59
2022/03/10 08:16:47;;;;;;;25.08;14.45;;;;;;;7.50;46.44;102340.09;5099138;28;20084;-59
2022/03/10 08:19:16;;;;;;;21.67;13.10;;;;;;;7.50;45.84;102337.41;5102265;28;20048;-59
2022/03/10 08:21:44;;;;;;;22.10;13.75;;;;;;;7.49;46.24;102340.25;5099769;28;20048;-59
2022/03/10 08:24:13;;;;;;;22.90;12.52;;;;;;;7.51;46.25;102338.25;5101531;28;20048;-58
2022/03/10 08:26:41;;;;;;;22.83;13.00;;;;;;;7.51;45.89;102336.41;5105575;28;20083;-59
2022/03/10 08:29:08;;;;;;;22.45;13.90;;;;;;;7.40;45.98;102312.66;5097999;28;20079;-59
2022/03/10 08:31:36;;;;;;;24.02;13.68;;;;;;;7.55;46.37;102338.75;5100406;28;20063;-60
2022/03/10 08:34:04;;;;;;;21.60;12.93;;;;;;;7.44;46.12;102316.69;5105256;28;20083;-59
2022/03/10 08:36:32;;;;;;;25.02;13.90;;;;;;;7.56;46.55;102335.91;5105096;28;20063;-60
2022/03/10 08:39:00;;;;;;;20.10;11.95;;;;;;;7.58;46.26;102333.91;5094988;28;20500;-60
2022/03/10 08:41:29;;;;;;;21.42;12.65;;;;;;;7.58;46.48;102323.22;5102078;28;20165;-59
2022/03/10 08:43:56;;;;;;;22.58;12.77;;;;;;;7.58;46.54;102319.69;5104475;28;20059;-60
2022/03/10 08:46:24;;;;;;;20.13;11.55;;;;;;;7.54;46.60;102321.03;5104812;28;20469;-60
2022/03/10 08:48:52;;;;;;;20.50;12.43;;;;;;;7.59;46.86;102327.56;5102783;28;20047;-59
2022/03/10 08:51:20;;;;;;;25.17;12.68;;;;;;;7.60;46.54;102331.06;5102979;28;20161;-59
2022/03/10 08:53:48;;;;;;;22.73;12.73;;;;;;;7.62;46.74;102327.22;5104329;28;20052;-60
2022/03/10 08:56:16;;;;;;;22.30;13.02;;;;;;;7.65;46.66;102328.72;5100328;28;20068;-60
2022/03/10 08:58:45;;;;;;;21.27;12.98;;;;;;;7.66;46.93;102323.22;5087973;28;20076;-58
2022/03/10 09:01:12;;;;;;;24.55;13.35;;;;;;;7.69;46.59;102322.88;5103667;28;20124;-58
2022/03/10 09:03:51;;;;;;;21.52;13.23;;;;;;;7.73;46.85;102332.25;5084507;28;20060;-58
2022/03/10 09:06:19;;;;;;;26.75;13.52;;;;;;;7.76;46.94;102323.06;5104970;28;20135;-59
2022/03/10 09:08:48;;;;;;;24.08;12.73;;;;;;;7.78;46.89;102315.69;5101595;28;20051;-59
2022/03/10 09:11:16;;;;;;;26.95;12.38;;;;;;;7.79;47.24;102320.03;5092770;28;20059;-60
2022/03/10 09:13:48;;;;;;;23.50;11.93;;;;;;;7.68;47.35;102297.13;5102247;28;20052;-60
2022/03/10 09:16:16;;;;;;;22.92;12.48;;;;;;;7.85;47.27;102311.34;5095026;28;20051;-60
2022/03/10 09:18:45;;;;;;;22.40;12.25;;;;;;;7.88;47.04;102312.84;5102614;28;20048;-61
2022/03/10 09:21:12;;;;;;;20.85;12.20;;;;;;;7.88;47.41;102299.47;5104538;28;20044;-61
2022/03/10 09:23:40;;;;;;;18.70;11.75;;;;;;;7.91;46.97;102301.81;5101529;28;20056;-59
2022/03/10 09:26:08;;;;;;;19.30;12.13;;;;;;;7.90;47.22;102294.78;5104386;28;20047;-60
2022/03/10 09:28:36;;;;;;;22.05;11.80;;;;;;;7.94;47.51;102288.09;5104390;28;20072;-59
2022/03/10 09:31:05;;;;;;;22.23;12.43;;;;;;;8.00;47.66;102298.94;5103828;28;20048;-60
2022/03/10 09:33:33;;;;;;;21.30;13.02;;;;;;;8.03;47.71;102297.78;5102146;28;20075;-59
2022/03/10 09:36:01;;;;;;;20.70;12.15;;;;;;;8.05;47.56;102296.59;5104233;28;20086;-59
2022/03/10 09:38:28;;;;;;;20.33;12.52;;;;;;;8.09;47.52;102297.09;5098704;28;20070;-60
2022/03/10 09:40:56;;;;;;;20.65;11.43;;;;;;;8.10;47.64;102288.91;5103927;28;20497;-58
2022/03/10 09:43:29;;;;;;;18.08;10.90;;;;;;;8.15;47.37;102285.72;5103922;28;20061;-59
2022/03/10 09:45:56;;;;;;;20.27;12.60;;;;;;;8.18;48.00;102281.84;5098815;28;20072;-60
2022/03/10 09:48:26;;;;;;;19.02;12.20;;;;;;;8.19;47.90;102273.66;5090028;28;20080;-59
2022/03/10 09:50:54;;;;;;;19.23;11.68;;;;;;;8.25;48.38;102278.31;5103930;28;20087;-60
2022/03/10 09:53:27;;;;;;;19.00;11.85;;;;;;;8.26;47.70;102271.97;5098166;28;20051;-59
2022/03/10 09:55:55;;;;;;;19.25;11.10;;;;;;;8.29;48.20;102274.28;5103498;28;20048;-59
2022/03/10 09:58:23;;;;;;;21.80;11.82;;;;;;;8.33;48.27;102274.81;5100329;28;20048;-60
2022/03/10 10:00:51;;;;;;;20.83;10.88;;;;;;;8.38;49.05;102273.28;5098952;28;20095;-60
2022/03/10 10:03:19;;;;;;;21.52;12.15;;;;;;;8.41;48.54;102272.13;5099276;28;20082;-60
2022/03/10 10:05:48;;;;;;;25.23;12.00;;;;;;;8.43;48.36;102265.56;5104121;28;20067;-59
2022/03/10 10:08:17;;;;;;;20.30;12.05;;;;;;;8.45;48.31;102262.72;5101640;28;20076;-59
2022/03/10 10:10:48;;;;;;;20.85;11.70;;;;;;;8.48;48.30;102265.88;5093273;28;20060;-59
2022/03/10 10:13:28;;;;;;;19.95;11.07;;;;;;;8.53;49.03;102265.38;5098782;28;20139;-59
2022/03/10 10:15:58;;;;;;;20.77;11.38;;;;;;;8.57;48.87;102265.84;5096884;28;20048;-60
2022/03/10 10:18:27;;;;;;;24.20;12.23;;;;;;;8.59;48.91;102263.84;5100988;28;20188;-60
2022/03/10 10:21:18;;;;;;;20.00;11.75;;;;;;;8.61;49.14;102267.19;5103074;28;20108;-59
2022/03/10 10:23:46;;;;;;;22.40;12.27;;;;;;;8.64;49.11;102262.31;5099750;28;20106;-59
2022/03/10 10:26:15;;;;;;;21.50;11.90;;;;;;;8.68;48.99;102260.09;5103391;28;20059;-60
2022/03/10 10:28:47;;;;;;;18.58;11.57;;;;;;;8.70;49.55;102252.69;5102630;28;20544;-59
2022/03/10 10:31:17;;;;;;;21.40;12.38;;;;;;;8.75;49.51;102250.34;5103107;28;20089;-59
2022/03/10 10:33:58;;;;;;;19.60;11.20;;;;;;;8.78;49.15;102253.50;5093271;28;20059;-60
2022/03/10 10:36:29;;;;;;;18.83;11.45;;;;;;;8.81;49.57;102250.47;5094645;28;20055;-59
2022/03/10 10:38:58;;;;;;;17.73;11.10;;;;;;;8.85;49.48;102250.94;5110404;28;20093;-60
2022/03/10 10:41:28;;;;;;;17.35;11.45;;;;;;;8.90;49.53;102243.22;5104471;28;20087;-59
2022/03/10 10:43:57;;;;;;;17.52;10.77;;;;;;;8.93;49.65;102248.22;5103346;28;20056;-60
2022/03/10 10:46:28;;;;;;;15.07;9.23;;;;;;;8.98;50.21;102248.53;5102933;28;20075;-59
2022/03/10 10:48:57;;;;;;;18.20;10.52;;;;;;;9.03;49.79;102239.94;5099106;28;20122;-59
2022/03/10 10:51:32;;;;;;;18.92;10.50;;;;;;;9.06;49.73;102239.59;5103230;28;20058;-60
2022/03/10 10:54:01;;;;;;;16.40;10.15;;;;;;;9.06;50.33;102223.50;5095751;28;20052;-58
2022/03/10 10:56:30;;;;;;;18.50;11.15;;;;;;;9.16;49.95;102228.63;5102504;28;20051;-59
2022/03/10 10:59:00;;;;;;;18.23;10.55;;;;;;;9.21;50.01;102235.13;5103325;28;20078;-59
2022/03/10 11:01:36;;;;;;;18.20;9.45;;;;;;;9.25;50.59;102225.72;5100712;28;20052;-59
2022/03/10 11:04:05;;;;;;;19.53;10.83;;;;;;;9.29;50.73;102229.72;5093313;28;20082;-59
2022/03/10 11:06:35;;;;;;;16.08;10.02;;;;;;;9.33;50.49;102231.00;5102515;28;20044;-60
2022/03/10 11:09:03;;;;;;;18.00;10.40;;;;;;;9.35;51.06;102229.00;5099631;28;20056;-60
2022/03/10 11:11:33;;;;;;;20.58;11.05;;;;;;;9.43;50.99;102220.88;5102682;28;20048;-60
2022/03/10 11:14:01;;;;;;;16.30;8.85;;;;;;;9.48;50.23;102214.13;5103066;28;20146;-61
2022/03/10 11:16:30;;;;;;;18.80;11.02;;;;;;;9.52;50.14;102220.81;5098125;28;20076;-60
2022/03/10 11:19:00;;;;;;;19.15;11.02;;;;;;;9.55;50.79;102217.75;5095260;28;20377;-60
2022/03/10 11:21:56;;;;;;;15.35;9.10;;;;;;;9.62;50.71;102218.69;5098461;28;20056;-60
2022/03/10 11:25:11;;;;;;;18.05;9.27;;;;;;;9.68;51.16;102209.91;5098302;28;20059;-60
2022/03/10 11:27:43;;;;;;;19.20;10.82;;;;;;;9.72;51.21;102212.06;5102799;28;20102;-60
2022/03/10 11:30:12;;;;;;;14.25;9.15;;;;;;;9.76;51.43;102209.84;5100449;28;20055;-60